Time;durP1;ratioP1;P1;durP2;ratioP2;P2;SDS_P1;SDS_P2;PMS_P1;PMS_P2;Temp;Humidity;BMP_temperature;BMP_pressure;BME280_temperature;BME280_humidity;BME280_pressure;Samples;Min_cycle;Max_cycle;Signal;HPM_P1;HPM_P2
2023/02/11 08:36:54;;;;;;;20.87;7.50;;;8.10;99.90;;;;;;5010781;23;20244;-73
2023/02/11 08:39:22;;;;;;;20.90;6.97;;;8.10;99.90;;;;;;4996686;28;20668;-72
2023/02/11 08:41:51;;;;;;;20.93;7.50;;;8.10;99.90;;;;;;4991882;28;20213;-73
2023/02/11 08:44:19;;;;;;;18.73;7.43;;;7.90;99.90;;;;;;4995519;28;20210;-73
2023/02/11 08:46:46;;;;;;;17.90;8.10;;;7.90;99.90;;;;;;4995118;28;20674;-73
2023/02/11 08:49:14;;;;;;;21.13;7.43;;;7.90;99.90;;;;;;4994660;28;20214;-73
2023/02/11 08:51:40;;;;;;;26.53;8.20;;;8.10;99.90;;;;;;4994186;28;20221;-73
2023/02/11 08:54:09;;;;;;;18.40;7.17;;;7.90;99.90;;;;;;4995317;28;20683;-73
2023/02/11 08:56:36;;;;;;;21.27;7.40;;;8.00;99.90;;;;;;4994999;28;20202;-73
2023/02/11 08:59:04;;;;;;;17.53;7.50;;;8.00;99.90;;;;;;4994110;28;20246;-73
2023/02/11 09:01:32;;;;;;;21.07;8.00;;;8.00;99.90;;;;;;4985852;28;20214;-76
2023/02/11 09:03:59;;;;;;;21.30;7.97;;;8.00;99.90;;;;;;4992709;28;20214;-76
2023/02/11 09:06:27;;;;;;;18.97;7.27;;;7.90;99.90;;;;;;4994045;28;20634;-74
2023/02/11 09:08:56;;;;;;;21.80;8.07;;;7.90;99.90;;;;;;4994500;28;20302;-72
2023/02/11 09:11:27;;;;;;;18.03;8.30;;;7.90;99.90;;;;;;4992646;28;20676;-71
2023/02/11 09:13:53;;;;;;;18.77;8.07;;;7.90;99.90;;;;;;4994363;28;20238;-73
2023/02/11 09:16:23;;;;;;;18.00;7.60;;;7.90;99.90;;;;;;4993499;28;20206;-71
2023/02/11 09:18:50;;;;;;;17.60;7.30;;;8.00;99.90;;;;;;4994103;28;20230;-72
2023/02/11 09:21:19;;;;;;;18.90;8.27;;;8.00;99.90;;;;;;4994167;28;20564;-73
2023/02/11 09:23:46;;;;;;;19.03;8.60;;;8.10;99.90;;;;;;4993958;28;20222;-74
2023/02/11 09:26:16;;;;;;;17.87;7.93;;;8.10;99.90;;;;;;4994667;28;20206;-72
2023/02/11 09:28:44;;;;;;;23.47;8.60;;;8.30;99.90;;;;;;4994234;28;20221;-75
2023/02/11 09:31:13;;;;;;;19.97;8.23;;;8.30;99.90;;;;;;4993834;28;20211;-73
2023/02/11 09:33:46;;;;;;;21.10;8.80;;;8.20;99.90;;;;;;4994126;28;20226;-73
2023/02/11 09:36:14;;;;;;;21.33;7.83;;;8.40;99.90;;;;;;4994156;28;20218;-72
2023/02/11 09:38:42;;;;;;;27.20;8.17;;;8.40;99.90;;;;;;4993524;28;20238;-72
2023/02/11 09:41:25;;;;;;;21.23;9.00;;;8.50;99.90;;;;;;4993654;28;20218;-71
2023/02/11 09:43:55;;;;;;;22.23;7.43;;;8.50;99.90;;;;;;4994204;28;20222;-72
2023/02/11 09:46:24;;;;;;;20.43;8.00;;;8.50;99.90;;;;;;4993251;28;20680;-73
2023/02/11 09:48:53;;;;;;;22.33;8.77;;;8.40;99.90;;;;;;4993070;28;20680;-71
2023/02/11 09:51:25;;;;;;;27.00;8.43;;;8.40;99.90;;;;;;4993088;28;20533;-72
2023/02/11 09:53:57;;;;;;;27.57;9.00;;;8.40;99.90;;;;;;4993252;28;20237;-73
2023/02/11 09:56:25;;;;;;;21.23;9.17;;;8.40;99.90;;;;;;4993412;28;20202;-73
2023/02/11 09:58:52;;;;;;;22.70;8.23;;;8.50;99.90;;;;;;4993809;28;20241;-74
2023/02/11 10:01:30;;;;;;;21.97;8.23;;;8.70;99.90;;;;;;4993774;28;20206;-74
2023/02/11 10:04:07;;;;;;;22.43;8.27;;;8.90;99.90;;;;;;4993787;28;20226;-75
2023/02/11 10:06:40;;;;;;;25.70;8.70;;;8.80;99.90;;;;;;4993183;28;20209;-73
2023/02/11 10:09:39;;;;;;;20.67;7.70;;;8.70;99.90;;;;;;4993772;28;20212;-74
2023/02/11 10:12:28;;;;;;;26.53;8.87;;;8.70;99.90;;;;;;4993119;28;20231;-72
2023/02/11 10:15:16;;;;;;;18.00;7.53;;;8.80;99.90;;;;;;4993161;28;20210;-72
2023/02/11 10:18:02;;;;;;;21.30;7.13;;;8.90;99.90;;;;;;4993573;28;20574;-74
2023/02/11 10:20:33;;;;;;;22.17;8.17;;;8.80;99.90;;;;;;4991027;28;20206;-74
2023/02/11 10:23:02;;;;;;;24.53;8.57;;;8.80;99.90;;;;;;4993414;28;20231;-73
2023/02/11 10:25:35;;;;;;;24.50;8.30;;;8.70;99.90;;;;;;4973860;28;20211;-72
2023/02/11 10:28:11;;;;;;;22.40;8.53;;;8.90;99.90;;;;;;4974161;28;20219;-70
2023/02/11 10:30:42;;;;;;;25.93;8.87;;;8.90;99.90;;;;;;4984371;28;20657;-71
2023/02/11 10:33:19;;;;;;;26.07;8.43;;;8.90;99.90;;;;;;4992229;28;20222;-72
2023/02/11 10:35:46;;;;;;;25.03;9.57;;;9.00;99.90;;;;;;4993007;28;20210;-70
2023/02/11 10:38:13;;;;;;;22.37;7.77;;;9.00;99.90;;;;;;4983171;28;20226;-70
2023/02/11 10:40:39;;;;;;;24.03;8.83;;;9.10;99.90;;;;;;4987301;28;20290;-69
2023/02/11 10:43:13;;;;;;;22.43;7.63;;;9.10;99.90;;;;;;4980856;28;20223;-70
2023/02/11 10:45:43;;;;;;;23.47;9.00;;;9.10;99.90;;;;;;4980740;28;20210;-70
2023/02/11 10:48:48;;;;;;;22.40;8.60;;;9.20;99.90;;;;;;4981915;28;20230;-69
2023/02/11 10:51:21;;;;;;;20.87;8.13;;;9.20;99.90;;;;;;4982061;28;20270;-70
2023/02/11 10:53:49;;;;;;;25.60;8.80;;;9.20;99.90;;;;;;4980207;28;20223;-71
2023/02/11 10:56:24;;;;;;;21.70;8.57;;;9.20;99.90;;;;;;4980241;28;20667;-71
2023/02/11 10:59:00;;;;;;;23.80;8.70;;;9.20;99.90;;;;;;4980272;28;20234;-71
2023/02/11 11:01:41;;;;;;;26.97;9.03;;;9.20;99.90;;;;;;4984643;28;20213;-70
2023/02/11 11:04:36;;;;;;;18.07;7.90;;;9.30;99.90;;;;;;4981351;28;20562;-71
2023/02/11 11:07:18;;;;;;;22.77;8.00;;;9.30;99.90;;;;;;4978594;28;20558;-71
2023/02/11 11:09:49;;;;;;;21.77;8.13;;;9.30;99.90;;;;;;4976984;28;20210;-72
2023/02/11 11:12:32;;;;;;;25.07;9.13;;;9.30;99.90;;;;;;4993592;28;20237;-72
2023/02/11 11:15:01;;;;;;;25.70;9.00;;;9.10;99.90;;;;;;4993707;28;20238;-72
2023/02/11 11:17:28;;;;;;;21.60;9.10;;;9.20;99.90;;;;;;4993393;28;20209;-72
2023/02/11 11:20:14;;;;;;;21.87;8.00;;;9.20;99.90;;;;;;4993631;28;20230;-70
2023/02/11 11:22:44;;;;;;;23.87;8.73;;;9.10;99.90;;;;;;4993317;28;20234;-70
2023/02/11 11:25:25;;;;;;;26.13;9.27;;;9.10;99.90;;;;;;4993586;28;20305;-70
2023/02/11 11:27:55;;;;;;;21.83;8.77;;;8.90;99.90;;;;;;4993443;28;20210;-70
2023/02/11 11:30:25;;;;;;;21.93;9.13;;;9.00;99.90;;;;;;4993604;28;20210;-70
2023/02/11 11:32:52;;;;;;;25.57;9.80;;;9.20;99.90;;;;;;4993533;28;20230;-70
2023/02/11 11:35:25;;;;;;;27.07;10.27;;;9.20;99.90;;;;;;4992624;28;20576;-70
2023/02/11 11:37:59;;;;;;;25.53;8.93;;;9.30;99.90;;;;;;4993200;28;20218;-70
2023/02/11 11:40:28;;;;;;;28.07;9.50;;;9.30;99.90;;;;;;4992967;28;20680;-70
2023/02/11 11:43:17;;;;;;;23.40;8.60;;;9.30;99.90;;;;;;4993751;28;20226;-70
2023/02/11 11:45:55;;;;;;;28.77;9.47;;;9.40;99.90;;;;;;4993609;28;20209;-70
2023/02/11 11:48:26;;;;;;;22.87;9.03;;;9.70;99.90;;;;;;4993530;28;20210;-70
2023/02/11 11:50:57;;;;;;;22.07;9.17;;;9.70;99.90;;;;;;4993451;28;20233;-71
2023/02/11 11:53:33;;;;;;;24.73;9.03;;;9.50;99.90;;;;;;4993168;28;20230;-70
2023/02/11 11:56:03;;;;;;;23.60;9.63;;;9.60;99.90;;;;;;4993657;28;20202;-70
2023/02/11 11:58:31;;;;;;;21.47;8.63;;;9.50;99.90;;;;;;4993286;28;20313;-69
2023/02/11 12:01:10;;;;;;;23.43;9.20;;;9.30;99.90;;;;;;4993102;28;20640;-71
2023/02/11 12:04:15;;;;;;;20.23;8.50;;;9.30;99.90;;;;;;4993405;28;20328;-70
2023/02/11 12:06:49;;;;;;;21.43;9.27;;;9.40;99.90;;;;;;4992879;28;20210;-72
2023/02/11 12:09:28;;;;;;;25.30;9.93;;;9.50;99.90;;;;;;4993348;28;20210;-71
2023/02/11 12:12:13;;;;;;;22.63;9.60;;;9.50;99.90;;;;;;4993414;28;20225;-72
2023/02/11 12:14:46;;;;;;;25.63;7.93;;;9.70;99.90;;;;;;4993266;28;20352;-71
2023/02/11 12:17:29;;;;;;;24.93;9.37;;;9.60;99.90;;;;;;4993156;28;20209;-72
2023/02/11 12:20:17;;;;;;;23.27;8.80;;;9.80;99.90;;;;;;4993222;28;20233;-72
2023/02/11 12:22:56;;;;;;;22.63;9.27;;;9.80;99.90;;;;;;4993376;28;20230;-72
2023/02/11 12:25:29;;;;;;;21.60;9.03;;;9.80;99.90;;;;;;4993121;28;20560;-71
2023/02/11 12:28:06;;;;;;;20.70;9.10;;;9.80;99.90;;;;;;4993211;28;20212;-72
2023/02/11 12:30:54;;;;;;;23.53;9.47;;;9.80;99.90;;;;;;4989190;28;20206;-73
2023/02/11 12:33:33;;;;;;;25.63;9.37;;;9.70;99.90;;;;;;4990467;28;20234;-73
2023/02/11 12:36:06;;;;;;;24.43;9.40;;;9.60;99.90;;;;;;4992934;28;20213;-73
2023/02/11 12:38:46;;;;;;;21.33;9.13;;;9.50;99.90;;;;;;4992835;28;20321;-72
2023/02/11 12:43:14;;;;;;;22.23;9.47;;;9.40;99.90;;;;;;4973721;28;20207;-72
2023/02/11 12:44:24;;;;;;;21.00;9.73;;;9.50;99.90;;;;;;4973510;28;20211;-72
2023/02/11 12:46:57;;;;;;;27.70;10.07;;;9.70;99.90;;;;;;4973185;28;20282;-74
2023/02/11 12:49:53;;;;;;;22.50;9.37;;;9.70;99.90;;;;;;4991580;28;20209;-72
2023/02/11 12:52:33;;;;;;;24.13;8.90;;;9.70;99.90;;;;;;4994423;28;20566;-73
2023/02/11 12:55:04;;;;;;;22.60;8.83;;;9.60;99.90;;;;;;4996027;28;20202;-72
2023/02/11 12:57:35;;;;;;;23.77;9.40;;;9.50;99.90;;;;;;4995837;28;20219;-71
2023/02/11 13:00:07;;;;;;;22.43;8.93;;;9.70;99.90;;;;;;4995686;28;20577;-70
2023/02/11 13:02:42;;;;;;;21.27;9.30;;;9.70;99.90;;;;;;4996230;28;20574;-70
2023/02/11 13:05:20;;;;;;;27.40;9.40;;;9.70;99.90;;;;;;4996013;28;20205;-71
2023/02/11 13:07:48;;;;;;;26.97;10.13;;;9.90;99.90;;;;;;4996088;28;20201;-71
2023/02/11 13:10:25;;;;;;;26.40;10.10;;;9.90;99.90;;;;;;4996030;28;20202;-71
2023/02/11 13:15:41;;;;;;;24.73;9.50;;;9.80;99.90;;;;;;4992932;28;20987;-71
2023/02/11 13:18:28;;;;;;;26.20;9.80;;;9.90;99.90;;;;;;4992583;28;20230;-73
2023/02/11 13:21:01;;;;;;;24.93;10.53;;;9.90;99.90;;;;;;4995918;28;20211;-73
2023/02/11 13:23:45;;;;;;;20.97;9.50;;;10.10;99.90;;;;;;4995416;28;20233;-73
2023/02/11 13:26:19;;;;;;;23.67;9.10;;;10.00;99.90;;;;;;4976520;28;20685;-74
2023/02/11 13:28:53;;;;;;;27.57;9.10;;;10.00;99.90;;;;;;4990930;28;20629;-72
2023/02/11 13:31:25;;;;;;;23.80;9.87;;;10.10;99.90;;;;;;4994351;28;20694;-73
2023/02/11 13:33:52;;;;;;;29.73;9.40;;;10.30;99.90;;;;;;4994084;28;20235;-70
2023/02/11 13:36:24;;;;;;;23.97;9.80;;;10.20;99.90;;;;;;4994126;28;20215;-73
2023/02/11 13:38:54;;;;;;;23.60;8.87;;;10.10;99.90;;;;;;4994008;28;20474;-73
2023/02/11 13:41:26;;;;;;;29.10;9.57;;;10.10;99.90;;;;;;4993998;28;20203;-73
2023/02/11 13:44:20;;;;;;;24.23;10.53;;;10.10;99.90;;;;;;4993754;28;20226;-73
2023/02/11 13:46:52;;;;;;;21.50;9.77;;;10.00;99.90;;;;;;4993468;28;20210;-73
2023/02/11 13:49:22;;;;;;;20.83;9.33;;;10.10;99.90;;;;;;4993884;28;20225;-74
2023/02/11 13:51:50;;;;;;;25.23;10.37;;;10.00;99.90;;;;;;4993870;28;20209;-73
2023/02/11 13:54:25;;;;;;;28.20;10.80;;;9.90;99.90;;;;;;4993701;28;22018;-73
2023/02/11 13:57:29;;;;;;;23.77;10.30;;;9.70;99.90;;;;;;4993905;28;20206;-73
2023/02/11 13:59:59;;;;;;;23.63;9.97;;;9.90;99.90;;;;;;4993535;28;20234;-71
2023/02/11 14:11:11;;;;;;;23.10;9.80;;;10.00;99.90;;;;;;4993655;28;20265;-70
2023/02/11 14:14:04;;;;;;;21.13;9.37;;;10.00;99.90;;;;;;4993842;28;20285;-72
2023/02/11 14:16:33;;;;;;;27.97;9.90;;;10.00;99.90;;;;;;4994876;28;20214;-75
2023/02/11 14:19:01;;;;;;;24.90;10.20;;;9.90;99.90;;;;;;4994064;28;20237;-73
2023/02/11 14:21:35;;;;;;;23.43;9.33;;;9.80;99.90;;;;;;4993584;28;20210;-73
2023/02/11 14:24:35;;;;;;;23.13;9.73;;;9.90;99.90;;;;;;4985480;28;20202;-73
2023/02/11 14:27:07;;;;;;;26.30;9.90;;;9.80;99.90;;;;;;4988194;28;20580;-71
2023/02/11 14:29:42;;;;;;;22.33;9.93;;;9.90;99.90;;;;;;4993154;28;20203;-74
2023/02/11 14:32:21;;;;;;;32.07;11.00;;;10.00;99.90;;;;;;4994412;28;20708;-69
2023/02/11 14:34:59;;;;;;;20.80;9.43;;;10.10;99.90;;;;;;4993538;28;20216;-72
2023/02/11 14:37:37;;;;;;;31.27;10.43;;;10.20;99.90;;;;;;4992855;28;20229;-74
2023/02/11 14:40:18;;;;;;;24.30;9.80;;;10.10;99.90;;;;;;4993086;28;20296;-71
2023/02/11 14:42:45;;;;;;;26.27;10.37;;;10.00;99.90;;;;;;4992781;28;20230;-72
2023/02/11 14:45:23;;;;;;;25.37;9.90;;;10.10;99.90;;;;;;4993016;28;20630;-73
2023/02/11 14:47:58;;;;;;;19.53;8.90;;;10.20;99.90;;;;;;4993345;28;20202;-76
2023/02/11 14:50:28;;;;;;;26.03;10.10;;;10.40;99.90;;;;;;4986975;28;20244;-73
2023/02/11 14:52:55;;;;;;;23.23;10.17;;;10.30;99.90;;;;;;4992758;28;20230;-72
2023/02/11 14:55:30;;;;;;;26.63;10.40;;;10.50;99.90;;;;;;4992733;28;20258;-71
2023/02/11 14:58:22;;;;;;;26.87;10.90;;;10.40;99.90;;;;;;4992820;28;20210;-73
2023/02/11 15:00:53;;;;;;;25.00;10.27;;;10.40;99.90;;;;;;4983165;28;20239;-70
2023/02/11 15:03:33;;;;;;;26.57;10.57;;;10.50;99.90;;;;;;4992671;28;20735;-70
2023/02/11 15:06:01;;;;;;;23.03;10.40;;;10.60;99.90;;;;;;4993111;28;20202;-73
2023/02/11 15:08:30;;;;;;;23.83;10.40;;;10.40;99.90;;;;;;4993311;28;20206;-72
2023/02/11 15:10:58;;;;;;;23.57;10.40;;;10.40;99.90;;;;;;4992599;28;20206;-75
2023/02/11 15:13:29;;;;;;;19.67;9.43;;;10.50;99.90;;;;;;4992382;28;20249;-73
2023/02/11 15:16:02;;;;;;;25.13;9.53;;;10.60;99.90;;;;;;4991568;28;20214;-71
2023/02/11 15:18:35;;;;;;;26.57;11.37;;;10.70;99.90;;;;;;4992489;28;20218;-72
2023/02/11 15:21:02;;;;;;;28.17;10.67;;;10.70;99.90;;;;;;4992194;28;20244;-71
2023/02/11 15:23:30;;;;;;;25.97;10.70;;;10.60;99.90;;;;;;4992632;28;20222;-71
2023/02/11 15:26:01;;;;;;;28.40;11.40;;;10.50;99.90;;;;;;4993254;28;20210;-71
2023/02/11 15:28:30;;;;;;;25.67;10.57;;;10.40;99.90;;;;;;4992171;28;20210;-70
2023/02/11 15:30:59;;;;;;;27.30;11.23;;;10.40;99.90;;;;;;4993060;28;20210;-72
2023/02/11 15:33:29;;;;;;;29.53;11.27;;;10.30;99.90;;;;;;4992383;28;20257;-71
2023/02/11 15:35:57;;;;;;;26.77;11.47;;;10.40;99.90;;;;;;4992307;28;20238;-71
2023/02/11 15:38:24;;;;;;;22.90;11.10;;;10.50;99.90;;;;;;4992186;28;20214;-72
2023/02/11 15:40:54;;;;;;;29.23;10.97;;;10.40;99.90;;;;;;4991963;28;20238;-72
2023/02/11 15:43:21;;;;;;;22.23;10.07;;;10.50;99.90;;;;;;4991511;28;20218;-72
2023/02/11 15:46:00;;;;;;;25.37;10.33;;;10.50;99.90;;;;;;4991984;28;20257;-72
2023/02/11 15:48:35;;;;;;;24.53;10.57;;;10.60;99.90;;;;;;4992130;28;20206;-71
2023/02/11 15:51:10;;;;;;;29.83;10.20;;;10.60;99.90;;;;;;4991730;28;20224;-71
2023/02/11 15:53:41;;;;;;;24.33;10.03;;;10.70;99.90;;;;;;4991830;28;20230;-73
2023/02/11 15:56:17;;;;;;;27.03;11.37;;;10.90;99.90;;;;;;4991918;28;20261;-71
2023/02/11 15:58:46;;;;;;;23.93;10.93;;;10.90;99.90;;;;;;4991749;28;20216;-71
2023/02/11 16:01:13;;;;;;;24.77;10.87;;;10.90;99.90;;;;;;4991158;28;20236;-71
2023/02/11 16:03:42;;;;;;;26.03;11.40;;;10.80;99.90;;;;;;4991137;28;20237;-69
2023/02/11 16:06:24;;;;;;;31.80;13.40;;;10.80;99.90;;;;;;4990916;28;20580;-71
2023/02/11 16:08:58;;;;;;;24.40;10.17;;;10.50;99.90;;;;;;4991459;28;20213;-71
2023/02/11 16:11:29;;;;;;;27.30;10.23;;;10.60;99.90;;;;;;4991379;28;20213;-72
2023/02/11 16:13:58;;;;;;;26.50;11.43;;;10.70;99.90;;;;;;4991646;28;20236;-74
2023/02/11 16:16:28;;;;;;;25.70;12.30;;;10.80;99.90;;;;;;4991629;28;20293;-72
2023/02/11 16:18:58;;;;;;;25.03;10.80;;;10.80;99.90;;;;;;4991391;28;20218;-71
2023/02/11 16:21:32;;;;;;;22.93;10.53;;;10.80;99.90;;;;;;4991765;28;20260;-72
2023/02/11 16:23:59;;;;;;;27.93;10.60;;;10.80;99.90;;;;;;4990760;28;20240;-71
2023/02/11 16:26:29;;;;;;;25.83;10.70;;;10.70;99.90;;;;;;4993641;28;20565;-73
2023/02/11 16:29:05;;;;;;;26.53;11.27;;;10.80;99.90;;;;;;4995037;28;20210;-70
2023/02/11 16:31:34;;;;;;;21.87;10.60;;;10.70;99.90;;;;;;4995262;28;20206;-70
2023/02/11 16:34:01;;;;;;;29.83;11.23;;;10.80;99.90;;;;;;4995945;28;20204;-72
2023/02/11 16:36:29;;;;;;;22.73;10.97;;;10.80;99.90;;;;;;4994577;28;20455;-70
2023/02/11 16:38:56;;;;;;;24.60;11.67;;;10.80;99.90;;;;;;4994500;28;20207;-71
2023/02/11 16:41:22;;;;;;;27.30;11.97;;;10.70;99.90;;;;;;4995173;28;20241;-73
2023/02/11 16:43:49;;;;;;;23.47;11.40;;;10.60;99.90;;;;;;4994700;28;20237;-71
2023/02/11 16:46:16;;;;;;;26.27;12.07;;;10.50;99.90;;;;;;4994769;28;20217;-75
2023/02/11 16:48:43;;;;;;;26.80;11.17;;;10.50;99.90;;;;;;4994678;28;20214;-73
2023/02/11 16:51:12;;;;;;;26.37;12.20;;;10.60;99.90;;;;;;4994921;28;20217;-71
2023/02/11 16:53:40;;;;;;;27.30;11.47;;;10.70;99.90;;;;;;4994715;28;20317;-72
2023/02/11 16:56:11;;;;;;;23.87;11.13;;;10.70;99.90;;;;;;4995405;28;20210;-71
2023/02/11 16:58:38;;;;;;;29.50;12.07;;;10.70;99.90;;;;;;4994794;28;20705;-72
2023/02/11 17:01:04;;;;;;;36.77;13.80;;;10.70;99.90;;;;;;4994382;28;20724;-72
2023/02/11 17:03:36;;;;;;;34.53;12.43;;;10.60;99.90;;;;;;4994714;28;20229;-71
2023/02/11 17:06:04;;;;;;;33.23;13.83;;;10.60;99.90;;;;;;4994568;28;20293;-71
2023/02/11 17:08:31;;;;;;;39.43;14.63;;;10.50;99.90;;;;;;4977102;28;20211;-72
2023/02/11 17:10:59;;;;;;;37.93;15.23;;;10.50;99.90;;;;;;4993501;28;20207;-71
2023/02/11 17:13:26;;;;;;;36.30;13.87;;;10.50;99.90;;;;;;4994854;28;20223;-70
2023/02/11 17:15:55;;;;;;;30.83;13.13;;;10.40;99.90;;;;;;4994593;28;20206;-73
2023/02/11 17:18:21;;;;;;;30.00;13.37;;;10.50;99.90;;;;;;4994300;28;20657;-72
2023/02/11 17:20:48;;;;;;;30.97;13.27;;;10.50;99.90;;;;;;4994723;28;20230;-74
2023/02/11 17:23:15;;;;;;;27.63;12.77;;;10.50;99.90;;;;;;4994240;28;20233;-71
